Albertville, Wisconsin
Current Conditions -  °F | °C
As of 1:35 PM on Friday 24 Oct 2014 (Local Time) from KLUM Reporting Station
Overcast Overcast  
Wind Chill: 60°   Ceiling: 2300
Heat Index: 60°   Visibility: 10mi
Dew Point: 51°   Wind: 8mph
Humidity: 70%   Direction: 130°SE
Pressure: 29.87"   Gusts: NA
Location:  45.0099°N, 91.7075°W
Report Text: KLUM 241835Z AUTO 13007KT 10SM OVC023 16/10 A2987 RMK AO2 T01580103
Loading
Personal Weather Stations






























Interactive Weather Map
Tropical Storm Tracking
New forecast layout! Learn more

10-Day Weather Forecast

Advertisements
Track Severe Weather on mobile